sensor_id;sensor_type;location;lat;lon;timestamp;temperature;humidity
23691;DHT22;43867;50.836;4.364;2022-07-18T00:01:32;21.00;54.80
23691;DHT22;43867;50.836;4.364;2022-07-18T00:03:59;20.90;54.90
23691;DHT22;43867;50.836;4.364;2022-07-18T00:06:25;21.00;54.90
23691;DHT22;43867;50.836;4.364;2022-07-18T00:08:50;21.10;54.80
23691;DHT22;43867;50.836;4.364;2022-07-18T00:11:16;21.10;54.80
23691;DHT22;43867;50.836;4.364;2022-07-18T00:13:41;21.00;55.00
23691;DHT22;43867;50.836;4.364;2022-07-18T00:16:07;21.00;55.10
23691;DHT22;43867;50.836;4.364;2022-07-18T00:18:33;21.10;55.10
23691;DHT22;43867;50.836;4.364;2022-07-18T00:20:58;21.20;54.90
23691;DHT22;43867;50.836;4.364;2022-07-18T00:23:24;21.10;55.10
23691;DHT22;43867;50.836;4.364;2022-07-18T00:25:49;21.10;55.00
23691;DHT22;43867;50.836;4.364;2022-07-18T00:28:15;21.20;54.90
23691;DHT22;43867;50.836;4.364;2022-07-18T00:30:41;21.20;55.20
23691;DHT22;43867;50.836;4.364;2022-07-18T00:33:06;21.00;55.30
23691;DHT22;43867;50.836;4.364;2022-07-18T00:35:32;20.90;55.60
23691;DHT22;43867;50.836;4.364;2022-07-18T00:37:57;20.90;55.80
23691;DHT22;43867;50.836;4.364;2022-07-18T00:40:23;20.90;55.70
23691;DHT22;43867;50.836;4.364;2022-07-18T00:42:48;20.90;55.60
23691;DHT22;43867;50.836;4.364;2022-07-18T00:45:14;20.80;56.00
23691;DHT22;43867;50.836;4.364;2022-07-18T00:47:40;20.70;56.30
23691;DHT22;43867;50.836;4.364;2022-07-18T00:50:06;20.80;56.10
23691;DHT22;43867;50.836;4.364;2022-07-18T00:52:32;20.80;56.10
23691;DHT22;43867;50.836;4.364;2022-07-18T00:54:58;20.80;56.20
23691;DHT22;43867;50.836;4.364;2022-07-18T00:57:24;20.70;56.20
23691;DHT22;43867;50.836;4.364;2022-07-18T00:59:51;20.70;56.40
23691;DHT22;43867;50.836;4.364;2022-07-18T01:02:35;20.60;56.90
23691;DHT22;43867;50.836;4.364;2022-07-18T01:05:01;20.40;57.50
23691;DHT22;43867;50.836;4.364;2022-07-18T01:07:27;20.20;58.30
23691;DHT22;43867;50.836;4.364;2022-07-18T01:09:52;20.20;58.40
23691;DHT22;43867;50.836;4.364;2022-07-18T01:12:19;20.50;57.90
23691;DHT22;43867;50.836;4.364;2022-07-18T01:14:45;20.60;57.70
23691;DHT22;43867;50.836;4.364;2022-07-18T01:17:11;20.80;57.20
23691;DHT22;43867;50.836;4.364;2022-07-18T01:19:37;20.80;57.10
23691;DHT22;43867;50.836;4.364;2022-07-18T01:22:02;20.80;57.30
23691;DHT22;43867;50.836;4.364;2022-07-18T01:24:28;20.80;57.30
23691;DHT22;43867;50.836;4.364;2022-07-18T01:26:53;20.80;57.40
23691;DHT22;43867;50.836;4.364;2022-07-18T01:29:19;20.80;57.60
23691;DHT22;43867;50.836;4.364;2022-07-18T01:31:44;20.70;57.50
23691;DHT22;43867;50.836;4.364;2022-07-18T01:34:10;20.80;57.60
23691;DHT22;43867;50.836;4.364;2022-07-18T01:36:35;20.60;57.80
23691;DHT22;43867;50.836;4.364;2022-07-18T01:39:02;20.50;58.10
23691;DHT22;43867;50.836;4.364;2022-07-18T01:41:28;20.30;58.70
23691;DHT22;43867;50.836;4.364;2022-07-18T01:43:54;20.40;58.80
23691;DHT22;43867;50.836;4.364;2022-07-18T01:46:19;20.40;58.60
23691;DHT22;43867;50.836;4.364;2022-07-18T01:48:44;20.30;59.10
23691;DHT22;43867;50.836;4.364;2022-07-18T01:51:10;20.30;59.50
23691;DHT22;43867;50.836;4.364;2022-07-18T01:53:36;20.20;59.70
23691;DHT22;43867;50.836;4.364;2022-07-18T01:56:03;20.10;59.70
23691;DHT22;43867;50.836;4.364;2022-07-18T01:58:28;20.00;59.80
23691;DHT22;43867;50.836;4.364;2022-07-18T02:00:54;20.20;59.60
23691;DHT22;43867;50.836;4.364;2022-07-18T02:03:20;20.10;59.80
23691;DHT22;43867;50.836;4.364;2022-07-18T02:05:46;20.00;59.70
23691;DHT22;43867;50.836;4.364;2022-07-18T02:08:11;20.00;59.80
23691;DHT22;43867;50.836;4.364;2022-07-18T02:10:37;20.20;59.60
23691;DHT22;43867;50.836;4.364;2022-07-18T02:13:02;20.20;59.30
23691;DHT22;43867;50.836;4.364;2022-07-18T02:15:28;20.20;59.80
23691;DHT22;43867;50.836;4.364;2022-07-18T02:17:54;20.10;60.00
23691;DHT22;43867;50.836;4.364;2022-07-18T02:20:19;20.00;60.70
23691;DHT22;43867;50.836;4.364;2022-07-18T02:22:45;19.90;61.40
23691;DHT22;43867;50.836;4.364;2022-07-18T02:25:10;19.90;61.80
23691;DHT22;43867;50.836;4.364;2022-07-18T02:27:36;20.00;62.10
23691;DHT22;43867;50.836;4.364;2022-07-18T02:30:04;19.90;62.00
23691;DHT22;43867;50.836;4.364;2022-07-18T02:32:30;20.10;61.60
23691;DHT22;43867;50.836;4.364;2022-07-18T02:34:56;20.10;61.80
23691;DHT22;43867;50.836;4.364;2022-07-18T02:37:21;20.20;61.70
23691;DHT22;43867;50.836;4.364;2022-07-18T02:39:47;19.90;62.30
23691;DHT22;43867;50.836;4.364;2022-07-18T02:42:12;20.10;62.20
23691;DHT22;43867;50.836;4.364;2022-07-18T02:44:38;20.00;62.50
23691;DHT22;43867;50.836;4.364;2022-07-18T02:47:03;19.80;63.30
23691;DHT22;43867;50.836;4.364;2022-07-18T02:49:29;19.70;64.60
23691;DHT22;43867;50.836;4.364;2022-07-18T02:54:23;19.70;65.00
23691;DHT22;43867;50.836;4.364;2022-07-18T02:56:49;19.60;65.40
23691;DHT22;43867;50.836;4.364;2022-07-18T02:59:14;19.50;66.40
23691;DHT22;43867;50.836;4.364;2022-07-18T03:01:40;19.30;67.90
23691;DHT22;43867;50.836;4.364;2022-07-18T03:04:05;19.20;69.00
23691;DHT22;43867;50.836;4.364;2022-07-18T03:06:31;19.20;69.90
23691;DHT22;43867;50.836;4.364;2022-07-18T03:08:56;19.20;70.80
23691;DHT22;43867;50.836;4.364;2022-07-18T03:11:22;19.20;71.50
23691;DHT22;43867;50.836;4.364;2022-07-18T03:13:47;19.20;71.70
23691;DHT22;43867;50.836;4.364;2022-07-18T03:16:13;19.10;73.00
23691;DHT22;43867;50.836;4.364;2022-07-18T03:18:38;19.10;74.20
23691;DHT22;43867;50.836;4.364;2022-07-18T03:21:04;18.90;75.20
23691;DHT22;43867;50.836;4.364;2022-07-18T03:23:29;18.90;75.60
23691;DHT22;43867;50.836;4.364;2022-07-18T03:25:55;19.00;76.00
23691;DHT22;43867;50.836;4.364;2022-07-18T03:28:20;18.90;76.60
23691;DHT22;43867;50.836;4.364;2022-07-18T03:30:46;18.90;77.70
23691;DHT22;43867;50.836;4.364;2022-07-18T03:33:11;18.90;78.50
23691;DHT22;43867;50.836;4.364;2022-07-18T03:35:37;18.90;78.30
23691;DHT22;43867;50.836;4.364;2022-07-18T03:38:02;19.00;78.60
23691;DHT22;43867;50.836;4.364;2022-07-18T03:40:28;19.00;78.50
23691;DHT22;43867;50.836;4.364;2022-07-18T03:42:53;18.90;78.80
23691;DHT22;43867;50.836;4.364;2022-07-18T03:45:19;19.00;78.80
23691;DHT22;43867;50.836;4.364;2022-07-18T03:47:44;19.00;79.20
23691;DHT22;43867;50.836;4.364;2022-07-18T03:50:10;18.90;79.60
23691;DHT22;43867;50.836;4.364;2022-07-18T03:52:35;19.00;79.50
23691;DHT22;43867;50.836;4.364;2022-07-18T03:55:01;18.90;79.50
23691;DHT22;43867;50.836;4.364;2022-07-18T03:57:27;19.00;79.70
23691;DHT22;43867;50.836;4.364;2022-07-18T03:59:52;19.00;79.70
23691;DHT22;43867;50.836;4.364;2022-07-18T04:02:18;19.00;79.80
23691;DHT22;43867;50.836;4.364;2022-07-18T04:04:43;19.10;79.90
23691;DHT22;43867;50.836;4.364;2022-07-18T04:07:09;19.10;79.70
23691;DHT22;43867;50.836;4.364;2022-07-18T04:09:35;19.20;79.50
23691;DHT22;43867;50.836;4.364;2022-07-18T04:12:01;19.20;79.20
23691;DHT22;43867;50.836;4.364;2022-07-18T04:14:26;19.40;78.80
23691;DHT22;43867;50.836;4.364;2022-07-18T04:16:52;19.50;77.70
23691;DHT22;43867;50.836;4.364;2022-07-18T04:19:17;19.60;77.20
23691;DHT22;43867;50.836;4.364;2022-07-18T04:21:43;19.60;77.40
23691;DHT22;43867;50.836;4.364;2022-07-18T04:24:08;19.70;76.60
23691;DHT22;43867;50.836;4.364;2022-07-18T04:26:34;19.60;76.60
23691;DHT22;43867;50.836;4.364;2022-07-18T04:28:59;19.60;76.90
23691;DHT22;43867;50.836;4.364;2022-07-18T04:31:25;19.70;76.50
23691;DHT22;43867;50.836;4.364;2022-07-18T04:33:50;19.70;76.30
23691;DHT22;43867;50.836;4.364;2022-07-18T04:36:16;19.80;76.10
23691;DHT22;43867;50.836;4.364;2022-07-18T04:38:43;19.80;76.00
23691;DHT22;43867;50.836;4.364;2022-07-18T04:41:09;19.80;76.10
23691;DHT22;43867;50.836;4.364;2022-07-18T04:43:35;19.90;75.80
23691;DHT22;43867;50.836;4.364;2022-07-18T04:46:00;20.10;75.30
23691;DHT22;43867;50.836;4.364;2022-07-18T04:48:26;20.10;74.50
23691;DHT22;43867;50.836;4.364;2022-07-18T04:50:51;20.20;73.80
23691;DHT22;43867;50.836;4.364;2022-07-18T04:53:17;20.20;73.80
23691;DHT22;43867;50.836;4.364;2022-07-18T04:55:42;20.30;73.60
23691;DHT22;43867;50.836;4.364;2022-07-18T04:58:08;20.30;73.10
23691;DHT22;43867;50.836;4.364;2022-07-18T05:00:34;20.40;73.20
23691;DHT22;43867;50.836;4.364;2022-07-18T05:02:59;20.40;72.50
23691;DHT22;43867;50.836;4.364;2022-07-18T05:05:25;20.40;73.00
23691;DHT22;43867;50.836;4.364;2022-07-18T05:07:52;20.30;72.90
23691;DHT22;43867;50.836;4.364;2022-07-18T05:10:19;20.30;72.90
23691;DHT22;43867;50.836;4.364;2022-07-18T05:12:45;20.50;73.30
23691;DHT22;43867;50.836;4.364;2022-07-18T05:15:12;20.60;72.40
23691;DHT22;43867;50.836;4.364;2022-07-18T05:17:38;20.70;71.70
23691;DHT22;43867;50.836;4.364;2022-07-18T05:20:04;21.00;71.30
23691;DHT22;43867;50.836;4.364;2022-07-18T05:22:31;21.20;70.00
23691;DHT22;43867;50.836;4.364;2022-07-18T05:24:57;21.40;69.30
23691;DHT22;43867;50.836;4.364;2022-07-18T05:27:22;21.40;67.60
23691;DHT22;43867;50.836;4.364;2022-07-18T05:29:48;21.40;66.00
23691;DHT22;43867;50.836;4.364;2022-07-18T05:32:13;21.50;65.10
23691;DHT22;43867;50.836;4.364;2022-07-18T05:34:39;21.60;64.70
23691;DHT22;43867;50.836;4.364;2022-07-18T05:37:04;21.70;64.50
23691;DHT22;43867;50.836;4.364;2022-07-18T05:39:30;21.90;63.10
23691;DHT22;43867;50.836;4.364;2022-07-18T05:41:55;22.00;62.90
23691;DHT22;43867;50.836;4.364;2022-07-18T05:44:21;22.20;62.70
23691;DHT22;43867;50.836;4.364;2022-07-18T05:46:47;22.40;61.40
23691;DHT22;43867;50.836;4.364;2022-07-18T05:49:13;22.70;60.70
23691;DHT22;43867;50.836;4.364;2022-07-18T05:51:38;23.10;60.20
23691;DHT22;43867;50.836;4.364;2022-07-18T05:54:04;23.30;58.30
23691;DHT22;43867;50.836;4.364;2022-07-18T05:56:29;23.70;57.90
23691;DHT22;43867;50.836;4.364;2022-07-18T05:58:55;23.90;56.50
23691;DHT22;43867;50.836;4.364;2022-07-18T06:01:20;24.40;55.50
23691;DHT22;43867;50.836;4.364;2022-07-18T06:03:46;24.50;55.10
23691;DHT22;43867;50.836;4.364;2022-07-18T06:06:13;24.90;53.90
23691;DHT22;43867;50.836;4.364;2022-07-18T06:08:38;25.20;53.30
23691;DHT22;43867;50.836;4.364;2022-07-18T06:11:04;25.40;52.40
23691;DHT22;43867;50.836;4.364;2022-07-18T06:13:32;25.50;51.90
23691;DHT22;43867;50.836;4.364;2022-07-18T06:15:58;25.70;51.70
23691;DHT22;43867;50.836;4.364;2022-07-18T06:18:23;25.80;51.10
23691;DHT22;43867;50.836;4.364;2022-07-18T06:20:49;25.90;50.20
23691;DHT22;43867;50.836;4.364;2022-07-18T06:23:14;25.70;49.90
23691;DHT22;43867;50.836;4.364;2022-07-18T06:25:40;25.80;50.20
23691;DHT22;43867;50.836;4.364;2022-07-18T06:28:05;25.90;49.40
23691;DHT22;43867;50.836;4.364;2022-07-18T06:30:31;25.80;49.40
23691;DHT22;43867;50.836;4.364;2022-07-18T06:32:56;25.80;49.40
23691;DHT22;43867;50.836;4.364;2022-07-18T06:35:22;25.60;49.30
23691;DHT22;43867;50.836;4.364;2022-07-18T06:37:47;25.70;50.00
23691;DHT22;43867;50.836;4.364;2022-07-18T06:40:13;25.70;49.50
23691;DHT22;43867;50.836;4.364;2022-07-18T06:42:38;25.90;50.10
23691;DHT22;43867;50.836;4.364;2022-07-18T06:45:05;25.90;48.90
23691;DHT22;43867;50.836;4.364;2022-07-18T06:47:30;25.90;49.20
23691;DHT22;43867;50.836;4.364;2022-07-18T06:49:56;26.30;49.10
23691;DHT22;43867;50.836;4.364;2022-07-18T06:52:22;26.60;48.70
23691;DHT22;43867;50.836;4.364;2022-07-18T06:54:47;26.80;48.30
23691;DHT22;43867;50.836;4.364;2022-07-18T06:57:13;26.90;47.90
23691;DHT22;43867;50.836;4.364;2022-07-18T06:59:38;27.00;48.40
23691;DHT22;43867;50.836;4.364;2022-07-18T07:02:04;27.20;47.60
23691;DHT22;43867;50.836;4.364;2022-07-18T07:04:30;27.10;47.20
23691;DHT22;43867;50.836;4.364;2022-07-18T07:06:55;27.00;48.10
23691;DHT22;43867;50.836;4.364;2022-07-18T07:09:21;27.20;47.60
23691;DHT22;43867;50.836;4.364;2022-07-18T07:11:48;27.80;47.20
23691;DHT22;43867;50.836;4.364;2022-07-18T07:14:13;28.20;46.40
23691;DHT22;43867;50.836;4.364;2022-07-18T07:16:39;28.10;46.00
23691;DHT22;43867;50.836;4.364;2022-07-18T07:19:04;27.90;46.50
23691;DHT22;43867;50.836;4.364;2022-07-18T07:21:30;28.00;46.40
23691;DHT22;43867;50.836;4.364;2022-07-18T07:23:55;28.10;46.00
23691;DHT22;43867;50.836;4.364;2022-07-18T07:26:21;28.30;46.10
23691;DHT22;43867;50.836;4.364;2022-07-18T07:28:46;28.60;45.40
23691;DHT22;43867;50.836;4.364;2022-07-18T07:31:12;28.70;45.20
23691;DHT22;43867;50.836;4.364;2022-07-18T07:33:37;29.10;44.50
23691;DHT22;43867;50.836;4.364;2022-07-18T07:36:03;29.40;44.20
23691;DHT22;43867;50.836;4.364;2022-07-18T07:38:30;29.10;43.50
23691;DHT22;43867;50.836;4.364;2022-07-18T07:40:55;29.00;43.90
23691;DHT22;43867;50.836;4.364;2022-07-18T07:43:21;28.80;44.00
23691;DHT22;43867;50.836;4.364;2022-07-18T07:45:47;29.10;43.90
23691;DHT22;43867;50.836;4.364;2022-07-18T07:48:14;29.40;43.40
23691;DHT22;43867;50.836;4.364;2022-07-18T07:50:40;29.80;43.30
23691;DHT22;43867;50.836;4.364;2022-07-18T07:53:05;29.90;42.40
23691;DHT22;43867;50.836;4.364;2022-07-18T07:55:31;29.90;42.60
23691;DHT22;43867;50.836;4.364;2022-07-18T07:57:57;29.70;43.20
23691;DHT22;43867;50.836;4.364;2022-07-18T08:00:22;30.20;43.30
23691;DHT22;43867;50.836;4.364;2022-07-18T08:02:55;30.20;42.00
23691;DHT22;43867;50.836;4.364;2022-07-18T08:05:21;30.10;42.60
23691;DHT22;43867;50.836;4.364;2022-07-18T08:07:47;30.00;42.10
23691;DHT22;43867;50.836;4.364;2022-07-18T08:10:12;30.10;42.80
23691;DHT22;43867;50.836;4.364;2022-07-18T08:12:38;30.30;42.00
23691;DHT22;43867;50.836;4.364;2022-07-18T08:15:04;30.30;41.90
23691;DHT22;43867;50.836;4.364;2022-07-18T08:17:29;30.80;42.10
23691;DHT22;43867;50.836;4.364;2022-07-18T08:19:55;31.10;41.10
23691;DHT22;43867;50.836;4.364;2022-07-18T08:22:21;31.30;41.60
23691;DHT22;43867;50.836;4.364;2022-07-18T08:24:46;31.50;40.80
23691;DHT22;43867;50.836;4.364;2022-07-18T08:27:12;31.50;40.30
23691;DHT22;43867;50.836;4.364;2022-07-18T08:29:37;31.60;40.60
23691;DHT22;43867;50.836;4.364;2022-07-18T08:32:03;31.70;40.70
23691;DHT22;43867;50.836;4.364;2022-07-18T08:34:28;31.80;40.40
23691;DHT22;43867;50.836;4.364;2022-07-18T08:36:54;32.20;41.20
23691;DHT22;43867;50.836;4.364;2022-07-18T08:39:20;32.30;39.00
23691;DHT22;43867;50.836;4.364;2022-07-18T08:41:45;31.90;39.10
23691;DHT22;43867;50.836;4.364;2022-07-18T08:44:12;31.80;39.60
23691;DHT22;43867;50.836;4.364;2022-07-18T08:46:38;31.80;38.80
23691;DHT22;43867;50.836;4.364;2022-07-18T08:49:05;32.00;38.50
23691;DHT22;43867;50.836;4.364;2022-07-18T08:51:30;32.00;39.20
23691;DHT22;43867;50.836;4.364;2022-07-18T08:53:56;32.00;38.20
23691;DHT22;43867;50.836;4.364;2022-07-18T08:56:21;32.10;38.10
23691;DHT22;43867;50.836;4.364;2022-07-18T08:58:47;32.50;38.10
23691;DHT22;43867;50.836;4.364;2022-07-18T09:01:13;32.60;37.80
23691;DHT22;43867;50.836;4.364;2022-07-18T09:03:38;33.10;37.50
23691;DHT22;43867;50.836;4.364;2022-07-18T09:06:13;33.20;36.90
23691;DHT22;43867;50.836;4.364;2022-07-18T09:08:40;33.30;36.60
23691;DHT22;43867;50.836;4.364;2022-07-18T09:11:08;33.40;36.60
23691;DHT22;43867;50.836;4.364;2022-07-18T09:13:36;33.30;36.90
23691;DHT22;43867;50.836;4.364;2022-07-18T09:16:06;33.50;36.70
23691;DHT22;43867;50.836;4.364;2022-07-18T09:18:38;33.40;36.90
23691;DHT22;43867;50.836;4.364;2022-07-18T09:21:05;33.50;36.10
23691;DHT22;43867;50.836;4.364;2022-07-18T09:23:32;33.40;36.30
23691;DHT22;43867;50.836;4.364;2022-07-18T09:25:58;33.70;35.70
23691;DHT22;43867;50.836;4.364;2022-07-18T09:28:25;33.80;36.00
23691;DHT22;43867;50.836;4.364;2022-07-18T09:30:51;34.00;35.60
23691;DHT22;43867;50.836;4.364;2022-07-18T09:33:17;34.10;36.60
23691;DHT22;43867;50.836;4.364;2022-07-18T09:35:46;34.30;35.80
23691;DHT22;43867;50.836;4.364;2022-07-18T09:38:14;34.70;35.10
23691;DHT22;43867;50.836;4.364;2022-07-18T09:40:43;34.00;35.60
23691;DHT22;43867;50.836;4.364;2022-07-18T09:43:11;34.30;35.90
23691;DHT22;43867;50.836;4.364;2022-07-18T09:45:41;34.60;36.20
23691;DHT22;43867;50.836;4.364;2022-07-18T09:48:11;34.80;36.00
23691;DHT22;43867;50.836;4.364;2022-07-18T09:50:38;35.00;34.60
23691;DHT22;43867;50.836;4.364;2022-07-18T09:53:10;35.40;35.40
23691;DHT22;43867;50.836;4.364;2022-07-18T09:55:38;35.90;34.20
23691;DHT22;43867;50.836;4.364;2022-07-18T09:58:07;35.90;34.30
23691;DHT22;43867;50.836;4.364;2022-07-18T10:00:34;35.60;33.80
23691;DHT22;43867;50.836;4.364;2022-07-18T10:03:01;35.60;33.50
23691;DHT22;43867;50.836;4.364;2022-07-18T10:05:28;35.30;32.80
23691;DHT22;43867;50.836;4.364;2022-07-18T10:07:54;35.20;34.10
23691;DHT22;43867;50.836;4.364;2022-07-18T10:10:20;35.00;33.10
23691;DHT22;43867;50.836;4.364;2022-07-18T10:12:45;35.10;34.00
23691;DHT22;43867;50.836;4.364;2022-07-18T10:15:11;34.90;33.30
23691;DHT22;43867;50.836;4.364;2022-07-18T10:17:37;35.00;33.00
23691;DHT22;43867;50.836;4.364;2022-07-18T10:20:04;34.50;32.40
23691;DHT22;43867;50.836;4.364;2022-07-18T10:22:34;34.30;33.00
23691;DHT22;43867;50.836;4.364;2022-07-18T10:25:03;34.30;33.10
23691;DHT22;43867;50.836;4.364;2022-07-18T10:27:28;34.30;32.30
23691;DHT22;43867;50.836;4.364;2022-07-18T10:30:12;33.90;32.60
23691;DHT22;43867;50.836;4.364;2022-07-18T10:32:38;33.90;32.90
23691;DHT22;43867;50.836;4.364;2022-07-18T10:35:04;34.20;33.70
23691;DHT22;43867;50.836;4.364;2022-07-18T10:37:32;34.10;32.90
23691;DHT22;43867;50.836;4.364;2022-07-18T10:42:45;33.60;32.90
23691;DHT22;43867;50.836;4.364;2022-07-18T10:45:30;33.40;33.00
23691;DHT22;43867;50.836;4.364;2022-07-18T10:47:56;33.20;33.50
23691;DHT22;43867;50.836;4.364;2022-07-18T10:50:22;33.20;33.30
23691;DHT22;43867;50.836;4.364;2022-07-18T11:00:17;33.70;32.80
23691;DHT22;43867;50.836;4.364;2022-07-18T11:23:47;33.40;32.30
23691;DHT22;43867;50.836;4.364;2022-07-18T11:26:19;33.50;32.00
23691;DHT22;43867;50.836;4.364;2022-07-18T11:28:46;33.60;31.40
23691;DHT22;43867;50.836;4.364;2022-07-18T11:31:14;33.50;31.90
23691;DHT22;43867;50.836;4.364;2022-07-18T11:33:45;33.60;31.60
23691;DHT22;43867;50.836;4.364;2022-07-18T11:36:11;33.70;31.60
23691;DHT22;43867;50.836;4.364;2022-07-18T11:38:39;33.50;30.80
23691;DHT22;43867;50.836;4.364;2022-07-18T11:41:05;33.40;31.30
23691;DHT22;43867;50.836;4.364;2022-07-18T11:43:30;33.50;31.20
23691;DHT22;43867;50.836;4.364;2022-07-18T11:46:06;33.50;30.80
23691;DHT22;43867;50.836;4.364;2022-07-18T11:48:32;33.80;31.20
23691;DHT22;43867;50.836;4.364;2022-07-18T11:50:58;33.30;30.80
23691;DHT22;43867;50.836;4.364;2022-07-18T11:53:24;33.30;31.10
23691;DHT22;43867;50.836;4.364;2022-07-18T11:55:49;33.40;31.30
23691;DHT22;43867;50.836;4.364;2022-07-18T11:58:16;33.40;31.10
23691;DHT22;43867;50.836;4.364;2022-07-18T12:00:41;33.40;31.20
23691;DHT22;43867;50.836;4.364;2022-07-18T12:03:09;33.50;31.30
23691;DHT22;43867;50.836;4.364;2022-07-18T12:05:38;33.50;31.00
23691;DHT22;43867;50.836;4.364;2022-07-18T12:16:31;33.70;30.00
23691;DHT22;43867;50.836;4.364;2022-07-18T12:18:58;33.50;29.90
23691;DHT22;43867;50.836;4.364;2022-07-18T12:22:11;33.40;30.00
23691;DHT22;43867;50.836;4.364;2022-07-18T12:24:25;33.40;30.10
23691;DHT22;43867;50.836;4.364;2022-07-18T12:32:22;33.60;30.00
23691;DHT22;43867;50.836;4.364;2022-07-18T12:34:59;33.60;30.40
23691;DHT22;43867;50.836;4.364;2022-07-18T12:37:25;33.70;30.20
23691;DHT22;43867;50.836;4.364;2022-07-18T12:42:27;33.70;30.60
23691;DHT22;43867;50.836;4.364;2022-07-18T12:44:53;33.70;29.90
23691;DHT22;43867;50.836;4.364;2022-07-18T12:47:19;33.70;29.90
23691;DHT22;43867;50.836;4.364;2022-07-18T12:49:44;33.60;30.00
23691;DHT22;43867;50.836;4.364;2022-07-18T12:52:10;33.70;29.90
23691;DHT22;43867;50.836;4.364;2022-07-18T12:54:35;33.90;30.00
23691;DHT22;43867;50.836;4.364;2022-07-18T12:57:01;33.90;29.90
23691;DHT22;43867;50.836;4.364;2022-07-18T12:59:26;34.00;29.70
23691;DHT22;43867;50.836;4.364;2022-07-18T13:01:52;34.00;29.60
23691;DHT22;43867;50.836;4.364;2022-07-18T13:04:17;34.00;29.50
23691;DHT22;43867;50.836;4.364;2022-07-18T13:06:43;34.10;29.30
23691;DHT22;43867;50.836;4.364;2022-07-18T13:09:09;34.10;29.60
23691;DHT22;43867;50.836;4.364;2022-07-18T13:11:35;34.10;29.50
23691;DHT22;43867;50.836;4.364;2022-07-18T13:14:00;34.10;29.10
23691;DHT22;43867;50.836;4.364;2022-07-18T13:16:26;34.00;29.00
23691;DHT22;43867;50.836;4.364;2022-07-18T13:18:51;33.80;29.00
23691;DHT22;43867;50.836;4.364;2022-07-18T13:21:17;33.60;29.10
23691;DHT22;43867;50.836;4.364;2022-07-18T13:23:44;33.60;29.70
23691;DHT22;43867;50.836;4.364;2022-07-18T13:26:09;33.80;30.10
23691;DHT22;43867;50.836;4.364;2022-07-18T13:28:35;33.90;30.00
23691;DHT22;43867;50.836;4.364;2022-07-18T13:31:00;34.00;30.00
23691;DHT22;43867;50.836;4.364;2022-07-18T13:33:27;33.80;29.60
23691;DHT22;43867;50.836;4.364;2022-07-18T13:35:52;34.00;29.70
23691;DHT22;43867;50.836;4.364;2022-07-18T13:38:19;33.90;29.80
23691;DHT22;43867;50.836;4.364;2022-07-18T13:40:44;33.90;29.50
23691;DHT22;43867;50.836;4.364;2022-07-18T13:43:10;33.70;29.60
23691;DHT22;43867;50.836;4.364;2022-07-18T13:45:36;33.70;29.40
23691;DHT22;43867;50.836;4.364;2022-07-18T13:48:03;33.90;29.50
23691;DHT22;43867;50.836;4.364;2022-07-18T13:50:29;33.90;29.10
23691;DHT22;43867;50.836;4.364;2022-07-18T13:52:56;33.80;29.10
23691;DHT22;43867;50.836;4.364;2022-07-18T13:55:21;33.80;29.30
23691;DHT22;43867;50.836;4.364;2022-07-18T13:57:47;33.70;29.10
23691;DHT22;43867;50.836;4.364;2022-07-18T14:00:13;33.70;29.20
23691;DHT22;43867;50.836;4.364;2022-07-18T14:02:38;33.70;29.90
23691;DHT22;43867;50.836;4.364;2022-07-18T14:05:04;33.80;30.60
23691;DHT22;43867;50.836;4.364;2022-07-18T14:07:30;34.00;30.30
23691;DHT22;43867;50.836;4.364;2022-07-18T14:09:56;34.00;30.20
23691;DHT22;43867;50.836;4.364;2022-07-18T14:12:21;34.00;30.40
23691;DHT22;43867;50.836;4.364;2022-07-18T14:14:47;34.20;30.00
23691;DHT22;43867;50.836;4.364;2022-07-18T14:17:13;34.10;29.90
23691;DHT22;43867;50.836;4.364;2022-07-18T14:19:38;34.00;29.80
23691;DHT22;43867;50.836;4.364;2022-07-18T14:22:04;34.20;29.80
23691;DHT22;43867;50.836;4.364;2022-07-18T14:24:29;34.20;29.70
23691;DHT22;43867;50.836;4.364;2022-07-18T14:26:55;34.20;29.80
23691;DHT22;43867;50.836;4.364;2022-07-18T14:29:20;34.10;29.80
23691;DHT22;43867;50.836;4.364;2022-07-18T14:31:46;34.10;29.60
23691;DHT22;43867;50.836;4.364;2022-07-18T14:34:13;34.20;29.30
23691;DHT22;43867;50.836;4.364;2022-07-18T14:36:38;33.90;29.70
23691;DHT22;43867;50.836;4.364;2022-07-18T14:39:04;33.80;30.00
23691;DHT22;43867;50.836;4.364;2022-07-18T14:41:29;33.80;30.10
23691;DHT22;43867;50.836;4.364;2022-07-18T14:43:55;33.90;30.40
23691;DHT22;43867;50.836;4.364;2022-07-18T14:46:21;33.70;30.20
23691;DHT22;43867;50.836;4.364;2022-07-18T14:48:47;33.70;30.00
23691;DHT22;43867;50.836;4.364;2022-07-18T14:51:13;33.80;29.90
23691;DHT22;43867;50.836;4.364;2022-07-18T14:53:39;33.90;29.80
23691;DHT22;43867;50.836;4.364;2022-07-18T14:56:05;33.80;29.70
23691;DHT22;43867;50.836;4.364;2022-07-18T14:58:31;33.80;29.70
23691;DHT22;43867;50.836;4.364;2022-07-18T15:00:57;33.90;29.80
23691;DHT22;43867;50.836;4.364;2022-07-18T15:03:23;34.00;29.80
23691;DHT22;43867;50.836;4.364;2022-07-18T15:05:48;34.00;29.70
23691;DHT22;43867;50.836;4.364;2022-07-18T15:08:14;33.90;29.80
23691;DHT22;43867;50.836;4.364;2022-07-18T15:10:40;33.90;30.00
23691;DHT22;43867;50.836;4.364;2022-07-18T15:13:06;33.90;29.80
23691;DHT22;43867;50.836;4.364;2022-07-18T15:15:32;34.00;30.00
23691;DHT22;43867;50.836;4.364;2022-07-18T15:17:59;34.10;30.00
23691;DHT22;43867;50.836;4.364;2022-07-18T15:20:25;34.20;30.10
23691;DHT22;43867;50.836;4.364;2022-07-18T15:22:50;34.30;30.10
23691;DHT22;43867;50.836;4.364;2022-07-18T15:25:16;34.30;29.90
23691;DHT22;43867;50.836;4.364;2022-07-18T15:27:42;34.20;30.00
23691;DHT22;43867;50.836;4.364;2022-07-18T15:30:08;34.30;30.00
23691;DHT22;43867;50.836;4.364;2022-07-18T15:32:33;34.30;30.20
23691;DHT22;43867;50.836;4.364;2022-07-18T15:34:59;34.20;29.80
23691;DHT22;43867;50.836;4.364;2022-07-18T15:37:25;34.10;30.00
23691;DHT22;43867;50.836;4.364;2022-07-18T15:39:50;34.20;29.90
23691;DHT22;43867;50.836;4.364;2022-07-18T15:42:16;34.40;30.00
23691;DHT22;43867;50.836;4.364;2022-07-18T15:44:42;34.20;29.80
23691;DHT22;43867;50.836;4.364;2022-07-18T15:47:07;34.20;29.70
23691;DHT22;43867;50.836;4.364;2022-07-18T15:49:37;34.10;29.50
23691;DHT22;43867;50.836;4.364;2022-07-18T15:52:03;34.30;29.50
23691;DHT22;43867;50.836;4.364;2022-07-18T15:54:29;34.20;29.70
23691;DHT22;43867;50.836;4.364;2022-07-18T15:56:54;34.00;29.60
23691;DHT22;43867;50.836;4.364;2022-07-18T15:59:21;33.90;29.90
23691;DHT22;43867;50.836;4.364;2022-07-18T16:01:46;33.90;29.90
23691;DHT22;43867;50.836;4.364;2022-07-18T16:04:13;34.00;29.90
23691;DHT22;43867;50.836;4.364;2022-07-18T16:06:38;34.10;30.10
23691;DHT22;43867;50.836;4.364;2022-07-18T16:09:04;34.10;30.00
23691;DHT22;43867;50.836;4.364;2022-07-18T16:11:30;34.00;30.00
23691;DHT22;43867;50.836;4.364;2022-07-18T16:13:58;33.90;30.00